createdAt,value
2022-12-13T00:01:47.231Z,81.95
2022-12-13T00:04:15.805Z,82.29
2022-12-13T00:06:44.223Z,81.71
2022-12-13T00:09:14.746Z,81.52
2022-12-13T00:11:43.129Z,81.63
2022-12-13T00:14:14.471Z,82.54
2022-12-13T00:16:45.707Z,81.63
2022-12-13T00:19:14.165Z,80.51
2022-12-13T00:21:42.095Z,80.15
2022-12-13T00:24:10.587Z,80.61
2022-12-13T00:26:38.789Z,80.59
2022-12-13T00:29:09.045Z,81.03
2022-12-13T00:32:00.094Z,82.10
2022-12-13T00:34:27.139Z,81.80
2022-12-13T00:36:55.323Z,81.70
2022-12-13T00:39:24.153Z,81.40
2022-12-13T00:41:52.122Z,80.57
2022-12-13T00:44:20.893Z,81.49
2022-12-13T00:46:51.888Z,82.43
2022-12-13T00:49:20.463Z,81.81
2022-12-13T00:51:49.850Z,81.49
2022-12-13T00:54:18.769Z,81.25
2022-12-13T00:56:46.900Z,81.38
2022-12-13T00:59:16.795Z,81.69
2022-12-13T01:01:45.445Z,80.27
2022-12-13T01:04:15.321Z,79.38
2022-12-13T01:06:45.866Z,79.75
2022-12-13T01:09:18.694Z,80.40
2022-12-13T01:11:47.967Z,79.79
2022-12-13T01:14:16.667Z,80.71
2022-12-13T01:16:44.903Z,81.03
2022-12-13T01:19:14.798Z,83.63
2022-12-13T01:21:42.749Z,82.41
2022-12-13T01:24:11.039Z,82.36
2022-12-13T01:26:39.143Z,80.91
2022-12-13T01:29:07.698Z,80.81
2022-12-13T01:31:35.900Z,81.07
2022-12-13T01:34:10.838Z,80.07
2022-12-13T01:36:41.719Z,81.49
2022-12-13T01:39:15.100Z,81.84
2022-12-13T01:41:46.140Z,80.48
2022-12-13T01:44:51.707Z,80.14
2022-12-13T01:47:26.004Z,79.74
2022-12-13T01:49:58.479Z,81.66
2022-12-13T01:52:31.575Z,81.23
2022-12-13T01:55:15.694Z,80.75
2022-12-13T01:57:47.649Z,79.90
2022-12-13T02:00:17.347Z,79.84
2022-12-13T02:02:47.368Z,79.82
2022-12-13T02:05:22.477Z,80.10
2022-12-13T02:07:52.477Z,81.13
2022-12-13T02:10:21.106Z,80.25
2022-12-13T02:12:49.629Z,79.89
2022-12-13T02:15:22.890Z,80.77
2022-12-13T02:18:19.557Z,80.57
2022-12-13T02:21:12.841Z,80.17
2022-12-13T02:24:26.056Z,79.70
2022-12-13T02:27:01.046Z,80.23
2022-12-13T02:30:01.913Z,81.56
2022-12-13T02:32:36.758Z,82.16
2022-12-13T02:35:10.527Z,81.63
2022-12-13T02:37:49.061Z,80.69
2022-12-13T02:40:24.829Z,80.68
2022-12-13T02:43:00.787Z,81.12
2022-12-13T02:45:32.642Z,79.97
2022-12-13T02:48:04.865Z,80.05
2022-12-13T02:50:35.081Z,80.66
2022-12-13T02:53:03.848Z,80.25
2022-12-13T02:55:32.903Z,79.98
2022-12-13T02:58:00.732Z,79.57
2022-12-13T03:00:39.858Z,80.46
2022-12-13T03:03:18.911Z,80.14
2022-12-13T03:06:11.899Z,80.58
2022-12-13T03:08:52.519Z,80.04
2022-12-13T03:11:22.662Z,79.43
2022-12-13T03:13:53.517Z,79.39
2022-12-13T03:16:30.373Z,80.38
2022-12-13T03:19:03.283Z,80.05
2022-12-13T03:21:32.087Z,79.78
2022-12-13T03:24:00.032Z,81.07
2022-12-13T03:26:28.649Z,80.66
2022-12-13T03:28:56.671Z,80.88
2022-12-13T03:31:24.706Z,79.64
2022-12-13T03:33:52.996Z,80.31
2022-12-13T03:36:23.820Z,80.20
2022-12-13T03:38:54.289Z,80.57
2022-12-13T03:41:25.140Z,80.23
2022-12-13T03:43:53.286Z,79.33
2022-12-13T03:46:21.802Z,81.33
2022-12-13T03:48:49.984Z,80.67
2022-12-13T03:51:17.914Z,79.58
2022-12-13T03:53:47.646Z,80.20
2022-12-13T03:56:16.039Z,79.21
2022-12-13T03:58:43.992Z,79.53
2022-12-13T04:01:15.047Z,80.42
2022-12-13T04:03:46.274Z,79.93
2022-12-13T04:06:21.681Z,79.79
2022-12-13T04:08:52.860Z,80.22
2022-12-13T04:11:42.994Z,80.37
2022-12-13T04:14:11.696Z,81.39
2022-12-13T04:16:39.701Z,80.99
2022-12-13T04:19:07.845Z,79.95
2022-12-13T04:21:36.135Z,78.95
2022-12-13T04:24:06.211Z,79.54
2022-12-13T04:26:34.103Z,79.56
2022-12-13T04:29:02.138Z,78.77
2022-12-13T04:31:30.317Z,79.07
2022-12-13T04:33:58.164Z,78.20
2022-12-13T04:36:32.064Z,78.49
2022-12-13T04:39:00.963Z,78.63
2022-12-13T04:41:34.336Z,79.70
2022-12-13T04:44:02.894Z,79.01
2022-12-13T04:46:31.526Z,80.01
2022-12-13T04:48:59.589Z,80.16
2022-12-13T04:51:27.898Z,80.10
2022-12-13T04:53:55.763Z,80.38
2022-12-13T04:56:45.292Z,79.79
2022-12-13T04:59:13.287Z,79.76
2022-12-13T05:01:41.632Z,80.37
2022-12-13T05:04:09.622Z,80.38
2022-12-13T05:06:37.865Z,80.95
2022-12-13T05:09:11.362Z,79.27
2022-12-13T05:11:45.731Z,80.28
2022-12-13T05:14:23.411Z,80.34
2022-12-13T05:16:52.088Z,80.23
2022-12-13T05:19:20.305Z,80.04
2022-12-13T05:21:50.173Z,79.37
2022-12-13T05:24:18.161Z,80.90
2022-12-13T05:26:46.578Z,80.57
2022-12-13T05:29:15.897Z,79.58
2022-12-13T05:31:44.462Z,79.35
2022-12-13T05:34:12.362Z,80.84
2022-12-13T05:36:40.606Z,79.44
2022-12-13T05:39:29.232Z,80.19
2022-12-13T05:42:01.198Z,81.82
2022-12-13T05:44:32.192Z,80.41
2022-12-13T05:47:01.877Z,80.01
2022-12-13T05:49:30.995Z,79.01
2022-12-13T05:51:59.244Z,78.68
2022-12-13T05:54:27.706Z,78.90
2022-12-13T05:56:56.004Z,79.92
2022-12-13T05:59:24.207Z,79.56
2022-12-13T06:01:54.003Z,78.24
2022-12-13T06:04:23.299Z,79.87
2022-12-13T06:06:52.405Z,80.16
2022-12-13T06:09:20.505Z,80.18
2022-12-13T06:11:49.363Z,79.74
2022-12-13T06:14:21.909Z,79.80
2022-12-13T06:16:51.655Z,80.18
2022-12-13T06:19:21.852Z,78.99
2022-12-13T06:21:50.394Z,80.46
2022-12-13T06:24:20.032Z,79.46
2022-12-13T06:26:49.261Z,78.70
2022-12-13T06:29:22.659Z,80.46
2022-12-13T06:32:02.111Z,79.57
2022-12-13T06:34:34.584Z,78.84
2022-12-13T06:37:06.262Z,80.52
2022-12-13T06:39:35.044Z,79.68
2022-12-13T06:42:06.403Z,78.62
2022-12-13T06:44:35.837Z,79.31
2022-12-13T06:47:11.838Z,80.41
2022-12-13T06:49:44.685Z,79.87
2022-12-13T06:52:15.089Z,80.46
2022-12-13T06:54:44.892Z,79.56
2022-12-13T06:57:16.258Z,79.37
2022-12-13T06:59:45.475Z,79.86
2022-12-13T07:02:15.482Z,79.81
2022-12-13T07:04:55.057Z,78.76
2022-12-13T07:07:23.937Z,78.79
2022-12-13T07:09:52.547Z,78.22
2022-12-13T07:12:21.272Z,78.15
2022-12-13T07:14:49.635Z,78.41
2022-12-13T07:17:32.935Z,78.56
2022-12-13T07:20:08.334Z,78.86
2022-12-13T07:22:44.868Z,78.44
2022-12-13T07:25:26.724Z,77.78
2022-12-13T07:28:01.479Z,78.35
2022-12-13T07:30:32.610Z,79.14
2022-12-13T07:33:01.699Z,78.79
2022-12-13T07:35:37.512Z,78.58
2022-12-13T07:38:07.046Z,79.49
2022-12-13T07:40:36.240Z,78.24
2022-12-13T07:43:05.399Z,77.85
2022-12-13T07:45:34.408Z,78.69
2022-12-13T07:48:06.522Z,78.14
2022-12-13T07:50:37.244Z,77.96
2022-12-13T07:53:07.153Z,77.01
2022-12-13T07:55:36.637Z,77.72
2022-12-13T07:58:07.793Z,78.41
2022-12-13T08:00:36.785Z,77.57
2022-12-13T08:03:05.893Z,76.78
2022-12-13T08:05:39.040Z,77.74
2022-12-13T08:08:09.609Z,75.86
2022-12-13T08:10:39.596Z,71.72
2022-12-13T08:13:08.797Z,70.16
2022-12-13T08:15:40.681Z,68.61
2022-12-13T08:18:10.178Z,76.05
2022-12-13T08:20:40.783Z,67.45
2022-12-13T08:23:10.814Z,70.65
2022-12-13T08:25:39.050Z,63.87
2022-12-13T08:28:07.187Z,70.30
2022-12-13T08:30:35.957Z,66.74
2022-12-13T08:33:05.267Z,62.54
2022-12-13T08:35:34.996Z,66.97
2022-12-13T08:38:04.772Z,67.19
2022-12-13T08:40:33.406Z,64.17
2022-12-13T08:43:01.291Z,60.52
2022-12-13T08:45:30.950Z,61.96
2022-12-13T08:48:00.479Z,65.69
2022-12-13T08:50:29.232Z,65.61
2022-12-13T08:52:57.290Z,65.41
2022-12-13T08:55:32.295Z,66.27
2022-12-13T08:58:04.810Z,70.51
2022-12-13T09:00:35.705Z,70.67
2022-12-13T09:03:04.879Z,72.39
2022-12-13T09:05:35.087Z,72.07
2022-12-13T09:08:13.216Z,71.12
2022-12-13T09:10:59.694Z,71.74
2022-12-13T09:13:31.982Z,72.50
2022-12-13T09:16:01.864Z,72.66
2022-12-13T09:18:36.369Z,73.04
2022-12-13T09:21:11.061Z,73.19
2022-12-13T09:23:45.716Z,73.48
2022-12-13T09:26:18.506Z,73.82
2022-12-13T09:28:54.030Z,73.24
2022-12-13T09:31:23.087Z,73.53
2022-12-13T09:33:51.681Z,73.47
2022-12-13T09:36:22.350Z,74.66
2022-12-13T09:38:50.692Z,73.88
2022-12-13T09:41:28.407Z,74.19
2022-12-13T09:44:02.644Z,73.61
2022-12-13T09:46:45.075Z,73.58
2022-12-13T09:49:23.168Z,74.08
2022-12-13T09:52:11.780Z,73.58
2022-12-13T09:54:48.726Z,73.76
2022-12-13T09:57:33.250Z,72.83
2022-12-13T10:00:05.322Z,73.00
2022-12-13T10:02:40.511Z,73.03
2022-12-13T10:05:22.769Z,73.52
2022-12-13T10:07:56.266Z,73.67
2022-12-13T10:10:25.393Z,73.46
2022-12-13T10:13:03.222Z,73.41
2022-12-13T10:15:34.969Z,73.53
2022-12-13T10:18:05.505Z,72.14
2022-12-13T10:20:36.675Z,72.14
2022-12-13T10:26:03.278Z,72.01
2022-12-13T10:28:34.773Z,72.06
2022-12-13T10:31:03.737Z,71.63
2022-12-13T10:33:33.845Z,71.51
2022-12-13T10:36:21.047Z,71.65
2022-12-13T10:38:51.855Z,71.77
2022-12-13T10:41:35.901Z,72.02
2022-12-13T10:44:35.772Z,71.93
2022-12-13T10:47:16.846Z,71.94
2022-12-13T10:49:59.035Z,71.29
2022-12-13T10:52:32.054Z,71.84
2022-12-13T10:55:22.783Z,72.07
2022-12-13T10:57:53.963Z,72.22
2022-12-13T11:00:45.598Z,72.21
2022-12-13T11:03:29.138Z,72.22
2022-12-13T11:06:05.134Z,72.34
2022-12-13T11:08:33.529Z,71.44
2022-12-13T11:11:03.768Z,71.36
2022-12-13T11:13:38.999Z,71.21
2022-12-13T11:16:23.980Z,70.84
2022-12-13T11:18:55.503Z,71.54
2022-12-13T11:21:27.814Z,70.43
2022-12-13T11:24:01.980Z,71.49
2022-12-13T11:26:32.470Z,70.78
2022-12-13T11:29:17.386Z,70.92
2022-12-13T11:31:58.253Z,70.50
2022-12-13T11:34:37.142Z,70.87
2022-12-13T11:37:17.599Z,70.44
2022-12-13T11:39:53.671Z,69.97
2022-12-13T11:42:33.985Z,70.96
2022-12-13T11:45:09.291Z,70.29
2022-12-13T11:47:44.932Z,70.68
2022-12-13T11:50:22.118Z,71.22
2022-12-13T11:53:19.642Z,69.40
2022-12-13T11:55:55.285Z,70.21
2022-12-13T11:59:01.093Z,69.25
2022-12-13T12:01:25.378Z,69.89
2022-12-13T12:04:15.745Z,69.13
2022-12-13T12:06:51.166Z,70.26
2022-12-13T12:09:22.272Z,69.71
2022-12-13T12:11:57.476Z,69.66
2022-12-13T12:14:38.922Z,68.68
2022-12-13T12:17:07.943Z,69.94
2022-12-13T12:19:43.226Z,71.38
2022-12-13T12:22:24.093Z,71.15
2022-12-13T12:25:17.691Z,70.22
2022-12-13T12:27:56.034Z,70.29
2022-12-13T12:30:28.442Z,70.46
2022-12-13T12:33:08.190Z,70.86
2022-12-13T12:36:06.984Z,70.26
2022-12-13T12:39:12.897Z,71.00
2022-12-13T12:42:00.272Z,70.52
2022-12-13T12:44:43.306Z,71.12
2022-12-13T12:48:26.313Z,70.61
2022-12-13T12:50:32.339Z,70.83
2022-12-13T12:53:13.641Z,71.35
2022-12-13T12:55:53.024Z,71.63
2022-12-13T12:58:29.764Z,71.63
2022-12-13T13:01:14.979Z,71.85
2022-12-13T13:03:45.863Z,70.60
2022-12-13T13:06:18.821Z,71.24
2022-12-13T13:08:57.234Z,71.80
2022-12-13T13:11:28.924Z,71.39
2022-12-13T13:14:08.771Z,71.15
2022-12-13T13:16:40.141Z,70.48
2022-12-13T13:19:44.689Z,70.77
2022-12-13T13:22:44.302Z,71.08
2022-12-13T13:25:29.194Z,70.33
2022-12-13T13:28:15.754Z,71.46
2022-12-13T13:31:04.251Z,71.00
2022-12-13T13:33:48.938Z,71.13
2022-12-13T13:36:48.663Z,71.01
2022-12-13T13:39:19.787Z,69.99
2022-12-13T13:42:12.647Z,70.63
2022-12-13T13:44:58.252Z,71.34
2022-12-13T13:47:52.729Z,71.29
2022-12-13T13:50:54.373Z,70.54
2022-12-13T13:54:01.917Z,71.53
2022-12-13T13:57:05.077Z,70.76
2022-12-13T14:00:16.486Z,71.42
2022-12-13T14:03:34.509Z,71.63
2022-12-13T14:06:41.811Z,71.21
2022-12-13T14:09:30.953Z,71.18
2022-12-13T14:12:28.432Z,71.21
2022-12-13T14:15:24.949Z,71.84
2022-12-13T14:18:29.895Z,71.40
2022-12-13T14:21:10.319Z,72.26
2022-12-13T14:23:52.852Z,72.52
2022-12-13T14:26:38.299Z,72.99
2022-12-13T14:29:13.708Z,71.75
2022-12-13T14:31:44.747Z,71.65
2022-12-13T14:34:23.663Z,72.10
2022-12-13T14:37:01.886Z,71.41
2022-12-13T14:39:31.302Z,71.65
2022-12-13T14:42:01.563Z,73.49
2022-12-13T14:44:31.312Z,73.91
2022-12-13T14:47:02.612Z,74.30
2022-12-13T14:49:33.823Z,74.68
2022-12-13T14:52:08.026Z,75.60
2022-12-13T14:54:46.229Z,76.05
2022-12-13T14:57:20.002Z,76.24
2022-12-13T14:59:50.430Z,76.78
2022-12-13T15:02:30.962Z,76.41
2022-12-13T15:05:01.661Z,77.39
2022-12-13T15:07:34.827Z,77.48
2022-12-13T15:10:05.907Z,77.04
2022-12-13T15:12:34.542Z,77.70
2022-12-13T15:15:05.374Z,77.68
2022-12-13T15:17:35.859Z,78.67
2022-12-13T15:20:22.970Z,78.50
2022-12-13T15:22:59.993Z,77.77
2022-12-13T15:25:29.018Z,78.30
2022-12-13T15:27:58.350Z,78.67
2022-12-13T15:30:30.577Z,78.24
2022-12-13T15:33:08.471Z,78.99
2022-12-13T15:35:38.125Z,79.18
2022-12-13T15:38:28.125Z,79.81
2022-12-13T15:40:58.323Z,81.25
2022-12-13T15:43:33.309Z,79.70
2022-12-13T15:46:02.037Z,79.96
2022-12-13T15:48:34.287Z,79.64
2022-12-13T15:51:12.831Z,80.18
2022-12-13T15:54:03.459Z,79.83
2022-12-13T15:56:34.139Z,79.96
2022-12-13T15:59:04.290Z,80.08
2022-12-13T16:01:37.862Z,80.74
2022-12-13T16:04:07.746Z,80.63
2022-12-13T16:06:37.072Z,81.22
2022-12-13T16:09:09.576Z,80.92
2022-12-13T16:11:48.986Z,80.79
2022-12-13T16:14:48.954Z,81.40
2022-12-13T16:17:24.837Z,81.91
2022-12-13T16:22:59.921Z,81.48
2022-12-13T16:25:30.597Z,81.80
2022-12-13T16:27:59.645Z,81.84
2022-12-13T16:30:29.850Z,82.00
2022-12-13T16:35:48.517Z,82.80
2022-12-13T16:38:26.596Z,82.48
2022-12-13T16:41:08.975Z,82.18
2022-12-13T16:43:41.895Z,81.98
2022-12-13T16:47:12.820Z,82.30
2022-12-13T16:49:07.264Z,82.28
2022-12-13T16:51:35.791Z,82.56
2022-12-13T16:54:05.035Z,83.50
2022-12-13T16:56:35.000Z,82.67
2022-12-13T16:59:04.143Z,83.14
2022-12-13T17:01:33.082Z,84.04
2022-12-13T17:04:10.381Z,83.49
2022-12-13T17:06:41.989Z,83.10
2022-12-13T17:09:10.690Z,82.67
2022-12-13T17:11:40.690Z,82.73
2022-12-13T17:14:09.695Z,82.64
2022-12-13T17:16:38.830Z,83.92
2022-12-13T17:19:07.828Z,83.55
2022-12-13T17:21:36.560Z,83.82
2022-12-13T17:24:05.018Z,83.01
2022-12-13T17:26:33.896Z,83.43
2022-12-13T17:29:05.116Z,83.96
2022-12-13T17:31:36.097Z,82.54
2022-12-13T17:34:05.753Z,82.73
2022-12-13T17:36:34.357Z,83.14
2022-12-13T17:39:03.078Z,82.98
2022-12-13T17:41:31.408Z,83.55
2022-12-13T17:44:02.278Z,83.16
2022-12-13T17:46:32.453Z,83.02
2022-12-13T17:49:01.310Z,83.54
2022-12-13T17:51:30.306Z,83.05
2022-12-13T17:53:58.455Z,83.38
2022-12-13T17:56:27.057Z,83.83
2022-12-13T17:58:55.680Z,83.26
2022-12-13T18:01:25.898Z,83.28
2022-12-13T18:03:58.565Z,83.62
2022-12-13T18:06:27.394Z,84.02
2022-12-13T18:08:55.944Z,83.47
2022-12-13T18:11:32.940Z,83.56
2022-12-13T18:14:02.382Z,83.78
2022-12-13T18:16:36.377Z,83.60
2022-12-13T18:19:08.608Z,84.87
2022-12-13T18:21:37.310Z,83.39
2022-12-13T18:24:07.113Z,83.62
2022-12-13T18:26:35.557Z,82.49
2022-12-13T18:29:04.539Z,83.18
2022-12-13T18:31:33.231Z,82.74
2022-12-13T18:34:01.703Z,83.10
2022-12-13T18:36:31.365Z,82.69
2022-12-13T18:39:00.102Z,83.34
2022-12-13T18:41:30.156Z,84.12
2022-12-13T18:44:00.981Z,83.73
2022-12-13T18:46:30.344Z,83.14
2022-12-13T18:48:59.749Z,83.55
2022-12-13T18:51:29.326Z,83.32
2022-12-13T18:54:00.109Z,83.18
2022-12-13T18:56:28.448Z,83.26
2022-12-13T18:58:58.923Z,83.48
2022-12-13T19:01:28.856Z,83.86
2022-12-13T19:03:58.019Z,83.13
2022-12-13T19:06:28.897Z,84.16
2022-12-13T19:08:59.408Z,83.70
2022-12-13T19:11:30.609Z,83.47
2022-12-13T19:13:59.432Z,83.81
2022-12-13T19:16:28.354Z,83.69
2022-12-13T19:18:57.227Z,83.25
2022-12-13T19:21:27.503Z,83.24
2022-12-13T19:23:58.144Z,82.93
2022-12-13T19:26:29.774Z,82.45
2022-12-13T19:28:59.366Z,83.05
2022-12-13T19:31:32.255Z,82.29
2022-12-13T19:34:02.522Z,82.21
2022-12-13T19:36:33.899Z,82.21
2022-12-13T19:39:02.607Z,82.61
2022-12-13T19:41:33.921Z,82.18
2022-12-13T19:44:05.143Z,82.62
2022-12-13T19:46:33.955Z,82.80
2022-12-13T19:49:02.932Z,82.79
2022-12-13T19:51:37.539Z,82.60
2022-12-13T19:54:08.171Z,81.96
2022-12-13T19:56:38.637Z,81.69
2022-12-13T19:59:11.417Z,82.51
2022-12-13T20:01:43.177Z,81.91
2022-12-13T20:04:15.680Z,82.24
2022-12-13T20:06:44.419Z,81.74
2022-12-13T20:09:13.516Z,82.06
2022-12-13T20:11:43.373Z,82.84
2022-12-13T20:14:11.896Z,82.39
2022-12-13T20:16:41.949Z,83.18
2022-12-13T20:19:11.975Z,82.62
2022-12-13T20:21:40.143Z,82.61
2022-12-13T20:24:09.071Z,82.43
2022-12-13T20:26:37.374Z,82.36
2022-12-13T20:29:07.326Z,82.41
2022-12-13T20:31:38.689Z,81.96
2022-12-13T20:34:10.397Z,82.56
2022-12-13T20:36:39.037Z,82.09
2022-12-13T20:39:08.705Z,81.84
2022-12-13T20:41:37.814Z,82.16
2022-12-13T20:44:09.981Z,82.62
2022-12-13T20:46:38.281Z,82.43
2022-12-13T20:49:09.039Z,82.28
2022-12-13T20:51:38.371Z,82.29
2022-12-13T20:54:06.874Z,81.76
2022-12-13T20:56:36.815Z,82.57
2022-12-13T20:59:09.983Z,82.36
2022-12-13T21:01:41.087Z,82.35
2022-12-13T21:04:12.929Z,81.38
2022-12-13T21:06:43.659Z,81.86
2022-12-13T21:09:13.297Z,81.65
2022-12-13T21:11:47.405Z,81.70
2022-12-13T21:14:22.405Z,81.69
2022-12-13T21:16:53.426Z,81.70
2022-12-13T21:19:24.553Z,82.22
2022-12-13T21:21:54.232Z,81.83
2022-12-13T21:24:24.897Z,81.82
2022-12-13T21:26:56.544Z,81.18
2022-12-13T21:29:27.019Z,80.94
2022-12-13T21:31:55.387Z,81.16
2022-12-13T21:34:24.831Z,80.70
2022-12-13T21:36:54.353Z,80.70
2022-12-13T21:39:25.137Z,81.59
2022-12-13T21:41:54.716Z,81.03
2022-12-13T21:44:23.616Z,81.41
2022-12-13T21:49:48.245Z,81.41
2022-12-13T21:52:17.556Z,81.52
2022-12-13T21:55:15.289Z,81.53
2022-12-13T21:58:01.849Z,81.51
2022-12-13T22:00:38.438Z,81.12
2022-12-13T22:03:08.133Z,80.79
2022-12-13T22:05:36.997Z,80.93
2022-12-13T22:08:05.789Z,81.59
2022-12-13T22:10:34.429Z,81.33
2022-12-13T22:13:04.002Z,80.80
2022-12-13T22:15:32.592Z,80.93
2022-12-13T22:18:00.870Z,80.72
2022-12-13T22:20:30.788Z,80.25
2022-12-13T22:22:59.161Z,80.44
2022-12-13T22:25:27.555Z,81.26
2022-12-13T22:27:56.032Z,80.94
2022-12-13T22:30:26.303Z,79.96
2022-12-13T22:32:54.644Z,81.01
2022-12-13T22:35:23.598Z,80.63
2022-12-13T22:37:58.801Z,80.45
2022-12-13T22:40:29.691Z,81.06
2022-12-13T22:42:57.687Z,80.72
2022-12-13T22:45:26.438Z,80.24
2022-12-13T22:47:54.786Z,80.48
2022-12-13T22:50:24.551Z,81.33
2022-12-13T22:52:54.438Z,81.01
2022-12-13T22:55:22.926Z,80.72
2022-12-13T22:57:51.296Z,81.39
2022-12-13T23:00:20.494Z,81.23
2022-12-13T23:02:49.116Z,80.67
2022-12-13T23:05:18.797Z,81.21
2022-12-13T23:07:48.726Z,81.21
2022-12-13T23:10:50.971Z,80.84
2022-12-13T23:13:19.726Z,80.85
2022-12-13T23:15:49.651Z,81.01
2022-12-13T23:18:17.951Z,81.60
2022-12-13T23:20:48.419Z,80.85
2022-12-13T23:23:16.912Z,79.99
2022-12-13T23:25:48.971Z,80.54
2022-12-13T23:28:18.232Z,80.34
2022-12-13T23:30:46.272Z,80.03
2022-12-13T23:33:14.399Z,79.92
2022-12-13T23:35:42.608Z,79.51
2022-12-13T23:38:10.540Z,79.49
2022-12-13T23:40:38.864Z,79.50
2022-12-13T23:43:08.862Z,79.96
2022-12-13T23:45:37.059Z,80.20
2022-12-13T23:48:05.415Z,79.88
2022-12-13T23:50:34.028Z,79.66
2022-12-13T23:53:02.134Z,79.46
2022-12-13T23:55:30.430Z,78.87
2022-12-13T23:57:58.948Z,79.65
